createdAt,value
2017-07-20T14:35:09.179Z,999.9
2017-07-20T14:36:10.582Z,1000.3
2017-07-20T14:37:11.981Z,1000.2
2017-07-20T14:38:13.396Z,1000.2
2017-07-20T14:39:14.793Z,1000.2
2017-07-20T14:40:16.305Z,1000.3
2017-07-20T14:41:17.722Z,1000.2
2017-07-20T14:42:19.129Z,1000.2
2017-07-20T14:43:20.603Z,1000.3
2017-07-20T14:45:01.986Z,1000.2
2017-07-20T14:46:03.395Z,1000.0
2017-07-20T14:47:26.504Z,1000.0
2017-07-20T14:48:27.908Z,1000.0
2017-07-20T14:49:29.373Z,1000.0
2017-07-20T14:50:30.800Z,1000.0
2017-07-20T14:51:32.203Z,1000.0
2017-07-20T14:52:33.630Z,1000.1
2017-07-20T14:53:35.042Z,1000.0
2017-07-20T14:54:36.456Z,1000.1
2017-07-20T14:55:37.935Z,1000.1
2017-07-20T14:56:39.368Z,1000.1
2017-07-20T14:57:40.765Z,1000.1
2017-07-20T14:58:42.336Z,1000.2
2017-07-20T14:59:43.886Z,1000.1
2017-07-20T15:01:26.339Z,1000.1
2017-07-20T15:02:27.748Z,1000.1
2017-07-20T15:03:29.260Z,1000.2
2017-07-20T15:04:30.668Z,1000.2
2017-07-20T15:05:32.076Z,1000.1
2017-07-20T15:06:33.486Z,1000.2
2017-07-20T15:07:34.884Z,1000.1
2017-07-20T15:08:36.278Z,1000.1
2017-07-20T15:09:37.669Z,1000.1
2017-07-20T15:10:39.077Z,1000.2
2017-07-20T15:11:40.537Z,1000.4
2017-07-20T15:12:43.304Z,1000.4
2017-07-20T15:13:45.432Z,1000.3
2017-07-20T15:14:46.839Z,1000.5
2017-07-20T15:15:48.249Z,1000.3
2017-07-20T15:16:49.795Z,1000.5
2017-07-20T15:17:51.341Z,1000.5
2017-07-20T15:18:52.886Z,1000.4
2017-07-20T15:19:54.502Z,1000.3
2017-07-20T15:20:55.908Z,1000.3
2017-07-20T15:21:57.339Z,1000.2
2017-07-20T15:22:58.765Z,1000.1
2017-07-20T15:24:00.163Z,1000.1
2017-07-20T15:25:01.557Z,1000.1
2017-07-20T15:26:43.958Z,1000.0
2017-07-20T15:27:45.359Z,1000.0
2017-07-20T15:28:46.754Z,1000.0
2017-07-20T15:29:48.536Z,999.9
2017-07-20T15:30:49.936Z,1000.0
2017-07-20T15:31:51.356Z,1000.0
2017-07-20T15:32:52.734Z,1000.0
2017-07-20T15:33:54.294Z,1000.0
2017-07-20T15:34:55.705Z,1000.0
2017-07-20T15:35:57.104Z,1000.1
2017-07-20T15:36:58.507Z,1000.1
2017-07-20T15:37:59.973Z,1000.0
2017-07-20T15:39:01.378Z,1000.0
2017-07-20T15:40:02.884Z,1000.0
2017-07-20T15:41:04.333Z,1000.0
2017-07-20T15:42:05.876Z,1000.0
2017-07-20T15:43:07.340Z,1000.1
2017-07-20T15:44:08.783Z,1000.0
2017-07-20T15:45:10.274Z,1000.1
2017-07-20T15:46:11.847Z,1000.0
2017-07-20T15:47:13.384Z,999.9
2017-07-20T15:48:14.798Z,1000.0
2017-07-20T15:49:57.182Z,999.9
2017-07-20T15:50:58.585Z,999.9
2017-07-20T15:51:59.982Z,999.9
2017-07-20T15:53:01.375Z,999.9
2017-07-20T15:54:02.769Z,1000.0
2017-07-20T15:55:04.356Z,1000.0
2017-07-20T15:56:05.740Z,1000.0
2017-07-20T15:57:07.137Z,1000.0
2017-07-20T15:58:08.530Z,1000.0
2017-07-20T15:59:09.918Z,1000.0
2017-07-20T16:00:11.324Z,1000.0
2017-07-20T16:01:12.714Z,1000.0
2017-07-20T16:02:14.130Z,1000.0
2017-07-20T16:03:15.524Z,1000.0
2017-07-20T16:04:17.391Z,1000.0
2017-07-20T16:05:19.431Z,999.9
2017-07-20T16:06:20.782Z,1000.0
2017-07-20T16:07:22.178Z,1000.0
2017-07-20T16:08:23.596Z,1000.0
2017-07-20T16:09:25.181Z,999.9
2017-07-20T16:10:26.575Z,1000.0
2017-07-20T16:11:27.992Z,1000.0
2017-07-20T16:12:29.395Z,1000.0
2017-07-20T16:13:30.970Z,999.9
2017-07-20T16:14:32.372Z,999.9
2017-07-20T16:15:33.986Z,999.8
2017-07-20T16:16:35.381Z,999.9
2017-07-20T16:17:36.769Z,999.9
2017-07-20T16:18:39.321Z,999.9
2017-07-20T16:19:40.712Z,999.9
2017-07-20T16:20:42.118Z,999.9
2017-07-20T16:21:43.505Z,999.9
2017-07-20T16:22:44.908Z,999.9
2017-07-20T16:23:46.529Z,999.9
2017-07-20T16:24:47.940Z,1000.0
2017-07-20T16:25:49.406Z,999.9
2017-07-20T16:26:50.856Z,999.9
2017-07-20T16:27:52.254Z,999.9
2017-07-20T16:28:53.689Z,1000.0
2017-07-20T16:29:55.067Z,1000.0
2017-07-20T16:30:56.515Z,1000.0
2017-07-20T16:31:58.953Z,1000.0
2017-07-20T16:33:00.510Z,1000.0
2017-07-20T16:34:02.036Z,1000.0
2017-07-20T16:35:03.485Z,1000.0
2017-07-20T16:36:04.878Z,1000.0
2017-07-20T16:37:06.274Z,1000.0
2017-07-20T16:38:08.455Z,1000.0
2017-07-20T16:39:09.859Z,1000.0
2017-07-20T16:40:11.264Z,999.9
2017-07-20T16:41:12.728Z,999.9
2017-07-20T16:42:14.135Z,1000.0
2017-07-20T16:43:15.620Z,999.9
2017-07-20T16:44:57.996Z,999.9
2017-07-20T16:45:59.407Z,999.9
2017-07-20T16:47:00.797Z,999.9
2017-07-20T16:48:02.209Z,999.9
2017-07-20T16:49:03.611Z,999.9
2017-07-20T16:50:05.028Z,1000.0
2017-07-20T16:51:06.425Z,1000.0
2017-07-20T16:52:07.825Z,999.9
2017-07-20T16:53:09.214Z,999.9
2017-07-20T16:54:10.616Z,1000.0
2017-07-20T16:55:11.998Z,1000.0
2017-07-20T16:56:13.420Z,1000.0
2017-07-20T16:57:14.830Z,1000.0
2017-07-20T16:58:16.224Z,1000.1
2017-07-20T16:59:17.625Z,1000.1
2017-07-20T17:00:19.757Z,1000.1
2017-07-20T17:01:21.791Z,1000.1
2017-07-20T17:02:23.564Z,1000.1
2017-07-20T17:03:24.941Z,1000.1
2017-07-20T17:04:26.537Z,1000.2
2017-07-20T17:06:09.035Z,1000.2
2017-07-20T17:07:10.370Z,1000.2
2017-07-20T17:08:11.855Z,1000.2
2017-07-20T17:09:13.233Z,1000.2
2017-07-20T17:10:14.638Z,1000.3
2017-07-20T17:11:16.028Z,1000.3
2017-07-20T17:12:17.425Z,1000.3
2017-07-20T17:14:00.194Z,1000.3
2017-07-20T17:15:02.224Z,1000.3
2017-07-20T17:16:03.483Z,1000.4
2017-07-20T17:17:04.888Z,1000.4
2017-07-20T17:18:06.397Z,1000.4
2017-07-20T17:19:07.794Z,1000.3
2017-07-20T17:20:09.226Z,1000.4
2017-07-20T17:21:10.626Z,1000.4
2017-07-20T17:22:12.027Z,1000.4
2017-07-20T17:23:13.434Z,1000.4
2017-07-20T17:24:14.828Z,1000.4
2017-07-20T17:25:16.220Z,1000.5
2017-07-20T17:26:17.703Z,1000.4
2017-07-20T17:27:19.263Z,1000.4
2017-07-20T17:28:20.658Z,1000.4
2017-07-20T17:29:22.057Z,1000.4
2017-07-20T17:30:23.448Z,1000.5
2017-07-20T17:31:24.845Z,1000.4
2017-07-20T17:32:26.237Z,1000.5
2017-07-20T17:33:27.875Z,1000.5
2017-07-20T17:34:29.271Z,1000.5
2017-07-20T17:35:30.661Z,1000.5
2017-07-20T17:36:32.177Z,1000.5
2017-07-20T17:37:33.647Z,1000.5
2017-07-20T17:38:35.048Z,1000.5
2017-07-20T17:39:36.431Z,1000.5
2017-07-20T17:40:37.954Z,1000.5
2017-07-20T17:41:39.586Z,1000.5
2017-07-20T17:42:41.088Z,1000.5
2017-07-20T17:43:43.060Z,1000.5
2017-07-20T17:44:44.892Z,1000.5
2017-07-20T17:45:46.803Z,1000.5
2017-07-20T17:46:48.291Z,1000.6
2017-07-20T17:47:49.734Z,1000.5
2017-07-20T17:48:51.209Z,1000.5
2017-07-20T17:49:52.736Z,1000.5
2017-07-20T17:50:54.260Z,1000.6
2017-07-20T17:51:55.653Z,1000.5
2017-07-20T17:52:57.208Z,1000.5
2017-07-20T17:53:58.611Z,1000.6
2017-07-20T17:55:00.024Z,1000.6
2017-07-20T17:56:01.414Z,1000.6
2017-07-20T17:57:03.598Z,1000.6
2017-07-20T17:58:05.886Z,1000.6
2017-07-20T17:59:08.166Z,1000.7
2017-07-20T18:00:09.632Z,1000.6
2017-07-20T18:01:11.029Z,1000.6
2017-07-20T18:02:12.649Z,1000.6
2017-07-20T18:03:14.121Z,1000.6
2017-07-20T18:04:15.701Z,1000.6
2017-07-20T18:05:17.101Z,1000.7
2017-07-20T18:06:18.499Z,1000.6
2017-07-20T18:07:19.952Z,1000.6
2017-07-20T18:08:21.392Z,1000.7
2017-07-20T18:09:22.902Z,1000.7
2017-07-20T18:10:25.335Z,1000.7
2017-07-20T18:11:27.343Z,1000.6
2017-07-20T18:12:28.868Z,1000.7
2017-07-20T18:13:30.233Z,1000.7
2017-07-20T18:14:31.651Z,1000.7
2017-07-20T18:15:33.042Z,1000.7
2017-07-20T18:16:34.520Z,1000.7
2017-07-20T18:17:35.978Z,1000.8
2017-07-20T18:18:37.360Z,1000.8
2017-07-20T18:19:38.775Z,1000.8
2017-07-20T18:20:40.184Z,1000.7
2017-07-20T18:21:41.579Z,1000.8
2017-07-20T18:22:43.018Z,1000.8
2017-07-20T18:23:44.455Z,1000.8
2017-07-20T18:24:45.853Z,1000.8
2017-07-20T18:25:47.354Z,1000.8
2017-07-20T18:26:48.820Z,1000.8
2017-07-20T18:27:50.214Z,1000.9
2017-07-20T18:28:51.856Z,1000.8
2017-07-20T18:29:53.420Z,1000.8
2017-07-20T18:30:54.832Z,1000.9
2017-07-20T18:32:37.221Z,1000.9
2017-07-20T18:33:38.603Z,1000.9
2017-07-20T18:34:39.992Z,1000.9
2017-07-20T18:35:41.385Z,1000.9
2017-07-20T18:36:42.774Z,1000.9
2017-07-20T18:37:44.159Z,1000.9
2017-07-20T18:38:45.559Z,1000.9
2017-07-20T18:39:46.949Z,1000.9
2017-07-20T18:40:48.345Z,1000.9
2017-07-20T18:41:49.785Z,1000.9
2017-07-20T18:42:51.167Z,1000.9
2017-07-20T18:43:52.553Z,1001.0
2017-07-20T18:44:53.944Z,1001.0
2017-07-20T18:45:55.340Z,1000.9
2017-07-20T18:46:56.757Z,1001.0
2017-07-20T18:47:58.160Z,1001.0
2017-07-20T18:48:59.822Z,1001.0
2017-07-20T18:50:01.229Z,1001.1
2017-07-20T18:51:02.669Z,1001.0
2017-07-20T18:52:04.087Z,1001.0
2017-07-20T18:53:05.575Z,1001.1
2017-07-20T18:54:06.970Z,1001.1
2017-07-20T18:55:08.728Z,1001.1
2017-07-20T18:56:10.585Z,1001.1
2017-07-20T18:57:11.980Z,1001.2
2017-07-20T18:58:13.498Z,1001.2
2017-07-20T18:59:14.920Z,1001.2
2017-07-20T19:00:16.311Z,1001.2
2017-07-20T19:01:17.701Z,1001.2
2017-07-20T19:02:19.128Z,1001.3
2017-07-20T19:03:20.713Z,1001.3
2017-07-20T19:04:22.122Z,1001.2
2017-07-20T19:05:23.556Z,1001.3
2017-07-20T19:06:25.005Z,1001.3
2017-07-20T19:07:26.691Z,1001.3
2017-07-20T19:08:28.307Z,1001.3
2017-07-20T19:09:29.765Z,1001.3
2017-07-20T19:10:31.237Z,1001.3
2017-07-20T19:11:32.705Z,1001.3
2017-07-20T19:12:34.116Z,1001.4
2017-07-20T19:13:35.704Z,1001.4
2017-07-20T19:14:37.262Z,1001.5
2017-07-20T19:15:38.694Z,1001.4
2017-07-20T19:16:40.229Z,1001.6
2017-07-20T19:17:41.673Z,1001.6
2017-07-20T19:18:43.065Z,1001.7
2017-07-20T19:19:44.505Z,1001.8
2017-07-20T19:20:45.922Z,1001.8
2017-07-20T19:21:47.362Z,1001.9
2017-07-20T19:22:48.787Z,1001.9
2017-07-20T19:23:50.380Z,1002.0
2017-07-20T19:24:51.811Z,1002.0
2017-07-20T19:25:53.280Z,1002.1
2017-07-20T19:26:54.863Z,1002.1
2017-07-20T19:27:56.337Z,1002.1
2017-07-20T19:28:58.120Z,1002.2
2017-07-20T19:29:59.758Z,1002.1
2017-07-20T19:31:01.179Z,1002.2
2017-07-20T19:32:02.700Z,1002.2
2017-07-20T19:33:04.097Z,1002.2
2017-07-20T19:34:05.594Z,1002.3
2017-07-20T19:35:07.030Z,1002.3
2017-07-20T19:36:48.417Z,1002.4
2017-07-20T19:37:49.797Z,1002.4
2017-07-20T19:39:12.815Z,1002.4
2017-07-20T19:40:14.196Z,1002.4
2017-07-20T19:41:15.590Z,1002.5
2017-07-20T19:42:16.964Z,1002.5
2017-07-20T19:43:18.403Z,1002.5
2017-07-20T19:44:19.792Z,1002.5
2017-07-20T19:45:21.181Z,1002.5
2017-07-20T19:46:22.564Z,1002.6
2017-07-20T19:47:23.989Z,1002.6
2017-07-20T19:48:25.444Z,1002.6
2017-07-20T19:49:26.831Z,1002.7
2017-07-20T19:50:28.214Z,1002.7
2017-07-20T19:51:29.607Z,1002.7
2017-07-20T19:52:31.010Z,1002.7
2017-07-20T19:53:32.421Z,1002.8
2017-07-20T19:54:34.049Z,1002.7
2017-07-20T19:55:35.599Z,1002.8
2017-07-20T19:56:37.017Z,1002.8
2017-07-20T19:57:38.474Z,1002.8
2017-07-20T19:58:39.943Z,1002.9
2017-07-20T19:59:41.329Z,1002.9
2017-07-20T20:00:42.861Z,1002.9
2017-07-20T20:01:44.409Z,1003.0
2017-07-20T20:02:45.776Z,1003.0
2017-07-20T20:03:47.180Z,1003.0
2017-07-20T20:04:48.915Z,1003.1
2017-07-20T20:05:50.443Z,1003.0
2017-07-20T20:06:51.872Z,1003.0
2017-07-20T20:07:53.272Z,1003.1
2017-07-20T20:08:54.688Z,1003.1
2017-07-20T20:09:56.093Z,1003.1
2017-07-20T20:10:57.484Z,1003.1
2017-07-20T20:11:58.934Z,1003.1
2017-07-20T20:13:00.486Z,1003.1
2017-07-20T20:14:02.058Z,1003.1
2017-07-20T20:15:03.456Z,1003.2
2017-07-20T20:16:05.469Z,1003.2
2017-07-20T20:17:07.230Z,1003.2
2017-07-20T20:18:09.116Z,1003.2
2017-07-20T20:19:10.727Z,1003.2
2017-07-20T20:20:12.457Z,1003.3
2017-07-20T20:21:14.249Z,1003.2
2017-07-20T20:22:16.429Z,1003.3
2017-07-20T20:23:18.014Z,1003.3
2017-07-20T20:24:59.423Z,1003.3
2017-07-20T20:26:00.812Z,1003.3
2017-07-20T20:27:24.242Z,1003.4
2017-07-20T20:28:25.563Z,1003.4
2017-07-20T20:29:26.940Z,1003.4
2017-07-20T20:30:28.346Z,1003.3
2017-07-20T20:31:29.736Z,1003.3
2017-07-20T20:32:31.236Z,1003.4
2017-07-20T20:33:32.670Z,1003.4
2017-07-20T20:34:34.055Z,1003.3
2017-07-20T20:35:35.459Z,1003.4
2017-07-20T20:36:37.005Z,1003.4
2017-07-20T20:37:38.712Z,1003.4
2017-07-20T20:38:40.306Z,1003.4
2017-07-20T20:39:41.742Z,1003.4
2017-07-20T20:40:43.334Z,1003.4
2017-07-20T20:41:45.008Z,1003.4
2017-07-20T20:42:46.450Z,1003.4
2017-07-20T20:43:48.421Z,1003.4
2017-07-20T20:44:50.132Z,1003.4
2017-07-20T20:45:51.518Z,1003.4
2017-07-20T20:46:52.934Z,1003.4
2017-07-20T20:47:54.345Z,1003.4
2017-07-20T20:48:55.771Z,1003.4
2017-07-20T20:49:57.680Z,1003.5
2017-07-20T20:50:59.116Z,1003.5
2017-07-20T20:52:00.537Z,1003.5
2017-07-20T20:53:02.170Z,1003.5
2017-07-20T20:54:04.364Z,1003.5
2017-07-20T20:55:06.487Z,1003.5
2017-07-20T20:56:08.225Z,1003.5
2017-07-20T20:57:09.755Z,1003.5
2017-07-20T20:58:11.393Z,1003.5
2017-07-20T20:59:13.018Z,1003.6
2017-07-20T21:00:14.507Z,1003.6
2017-07-20T21:01:15.906Z,1003.6
2017-07-20T21:02:17.307Z,1003.6
2017-07-20T21:03:19.584Z,1003.6
2017-07-20T21:04:21.058Z,1003.7
2017-07-20T21:05:22.451Z,1003.7
2017-07-20T21:06:23.928Z,1003.7
2017-07-20T21:07:25.566Z,1003.7
2017-07-20T21:08:27.567Z,1003.7
2017-07-20T21:09:29.284Z,1003.8
2017-07-20T21:10:30.692Z,1003.8
2017-07-20T21:11:32.084Z,1003.8
2017-07-20T21:12:33.473Z,1003.8
2017-07-20T21:13:35.093Z,1003.8
2017-07-20T21:14:36.746Z,1003.8
2017-07-20T21:15:38.118Z,1003.8
2017-07-20T21:16:39.769Z,1003.8
2017-07-20T21:17:41.350Z,1003.8
2017-07-20T21:18:42.986Z,1003.8
2017-07-20T21:19:44.393Z,1003.8
2017-07-20T21:20:46.004Z,1003.8
2017-07-20T21:21:47.394Z,1003.9
2017-07-20T21:22:49.044Z,1003.8
2017-07-20T21:23:50.442Z,1003.8
2017-07-20T21:24:51.827Z,1003.8
2017-07-20T21:25:53.278Z,1003.8
2017-07-20T21:26:55.028Z,1003.9
2017-07-20T21:27:56.603Z,1003.9
2017-07-20T21:28:58.007Z,1003.9
2017-07-20T21:29:59.413Z,1003.9
2017-07-20T21:31:00.794Z,1003.9
2017-07-20T21:32:02.235Z,1003.9
2017-07-20T21:33:03.644Z,1003.9
2017-07-20T21:34:05.702Z,1003.9
2017-07-20T21:35:07.891Z,1003.9
2017-07-20T21:36:09.622Z,1003.9
2017-07-20T21:37:51.997Z,1004.0
2017-07-20T21:38:53.377Z,1004.0
2017-07-20T21:39:54.771Z,1004.0
2017-07-20T21:40:56.151Z,1004.0
2017-07-20T21:41:57.562Z,1004.0
2017-07-20T21:42:58.950Z,1004.0
2017-07-20T21:44:00.612Z,1004.0
2017-07-20T21:45:02.450Z,1004.0
2017-07-20T21:46:04.185Z,1004.0
2017-07-20T21:47:05.622Z,1004.1
2017-07-20T21:48:07.088Z,1004.1
2017-07-20T21:49:09.485Z,1004.1
2017-07-20T21:50:50.827Z,1004.1
2017-07-20T21:51:52.217Z,1004.1
2017-07-20T21:53:14.249Z,1004.2
2017-07-20T21:54:16.138Z,1004.2
2017-07-20T21:55:38.200Z,1004.1
2017-07-20T21:56:39.592Z,1004.2
2017-07-20T21:58:02.597Z,1004.2
2017-07-20T21:59:03.993Z,1004.2
2017-07-20T22:00:06.174Z,1004.2
2017-07-20T22:01:08.097Z,1004.2
2017-07-20T22:02:09.495Z,1004.2
2017-07-20T22:03:10.874Z,1004.2
2017-07-20T22:04:12.339Z,1004.2
2017-07-20T22:05:13.800Z,1004.3
2017-07-20T22:06:15.453Z,1004.2
2017-07-20T22:07:16.823Z,1004.3
2017-07-20T22:08:18.801Z,1004.2
2017-07-20T22:09:21.030Z,1004.3
2017-07-20T22:10:22.544Z,1004.3
2017-07-20T22:11:23.946Z,1004.3
2017-07-20T22:12:25.361Z,1004.3
2017-07-20T22:13:26.755Z,1004.3
2017-07-20T22:14:28.129Z,1004.4
2017-07-20T22:15:29.519Z,1004.4
2017-07-20T22:16:30.896Z,1004.4
2017-07-20T22:17:32.281Z,1004.4
2017-07-20T22:18:33.687Z,1004.4
2017-07-20T22:19:35.394Z,1004.5
2017-07-20T22:20:36.943Z,1004.4
2017-07-20T22:21:38.385Z,1004.5
2017-07-20T22:22:40.049Z,1004.5
2017-07-20T22:23:41.608Z,1004.5
2017-07-20T22:24:43.218Z,1004.5
2017-07-20T22:25:44.810Z,1004.5
2017-07-20T22:26:46.418Z,1004.5
2017-07-20T22:27:47.805Z,1004.5
2017-07-20T22:28:49.326Z,1004.5
2017-07-20T22:29:51.027Z,1004.5
2017-07-20T22:30:52.641Z,1004.5
2017-07-20T22:31:54.033Z,1004.5
2017-07-20T22:32:55.435Z,1004.5
2017-07-20T22:33:56.840Z,1004.5
2017-07-20T22:34:58.444Z,1004.5
2017-07-20T22:35:59.856Z,1004.5
2017-07-20T22:37:01.263Z,1004.5
2017-07-20T22:38:43.706Z,1004.5
2017-07-20T22:39:45.085Z,1004.6
2017-07-20T22:40:46.470Z,1004.6
2017-07-20T22:41:47.854Z,1004.6
2017-07-20T22:42:49.228Z,1004.6
2017-07-20T22:43:50.639Z,1004.6
2017-07-20T22:44:52.026Z,1004.6
2017-07-20T22:45:53.536Z,1004.6
2017-07-20T22:46:55.211Z,1004.6
2017-07-20T22:47:56.793Z,1004.7
2017-07-20T22:49:39.216Z,1004.7
2017-07-20T22:50:40.588Z,1004.7
2017-07-20T22:51:41.974Z,1004.7
2017-07-20T22:52:43.615Z,1004.7
2017-07-20T22:53:45.826Z,1004.7
2017-07-20T22:54:47.373Z,1004.7
2017-07-20T22:55:49.105Z,1004.7
2017-07-20T22:56:50.965Z,1004.7
2017-07-20T22:57:52.505Z,1004.7
2017-07-20T22:58:53.890Z,1004.7
2017-07-20T22:59:55.349Z,1004.7
2017-07-20T23:00:56.918Z,1004.7
2017-07-20T23:01:58.513Z,1004.7
2017-07-20T23:02:59.939Z,1004.8
2017-07-20T23:04:01.649Z,1004.8
2017-07-20T23:05:03.240Z,1004.8
2017-07-20T23:06:04.620Z,1004.8
2017-07-20T23:07:06.503Z,1004.8
2017-07-20T23:08:08.175Z,1004.8
2017-07-20T23:09:09.756Z,1004.8
2017-07-20T23:10:11.177Z,1004.8
2017-07-20T23:11:13.021Z,1004.8
2017-07-20T23:12:15.091Z,1004.8
2017-07-20T23:13:16.510Z,1004.8
2017-07-20T23:14:18.123Z,1004.8
2017-07-20T23:15:19.661Z,1004.8
2017-07-20T23:16:21.075Z,1004.8
2017-07-20T23:17:22.558Z,1004.8
2017-07-20T23:18:24.259Z,1004.8
2017-07-20T23:19:25.876Z,1004.8
2017-07-20T23:20:27.365Z,1004.8
2017-07-20T23:21:28.760Z,1004.8
2017-07-20T23:22:30.186Z,1004.8
2017-07-20T23:23:31.610Z,1004.8
2017-07-20T23:24:33.008Z,1004.8
2017-07-20T23:25:34.407Z,1004.8
2017-07-20T23:26:35.803Z,1004.8
2017-07-20T23:27:37.266Z,1004.8
2017-07-20T23:28:38.966Z,1004.8
2017-07-20T23:29:40.896Z,1004.8
2017-07-20T23:30:42.650Z,1004.8
2017-07-20T23:31:44.045Z,1004.8
2017-07-20T23:33:25.453Z,1004.8
2017-07-20T23:34:26.829Z,1004.8
2017-07-20T23:35:28.207Z,1004.7
2017-07-20T23:36:29.588Z,1004.7
2017-07-20T23:37:31.190Z,1004.7
2017-07-20T23:38:32.570Z,1004.8
2017-07-20T23:40:15.484Z,1004.7
2017-07-20T23:41:16.825Z,1004.8
2017-07-20T23:42:18.214Z,1004.8
2017-07-20T23:43:19.675Z,1004.8
2017-07-20T23:44:21.060Z,1004.8
2017-07-20T23:45:22.457Z,1004.8
2017-07-20T23:46:24.752Z,1004.8
2017-07-20T23:47:26.416Z,1004.8
2017-07-20T23:48:28.028Z,1004.8
2017-07-20T23:49:29.591Z,1004.8
2017-07-20T23:50:31.006Z,1004.8
2017-07-20T23:51:32.625Z,1004.8
2017-07-20T23:52:34.195Z,1004.9
2017-07-20T23:53:35.592Z,1004.9
2017-07-20T23:54:37.143Z,1004.9
2017-07-20T23:55:38.712Z,1004.9
2017-07-20T23:56:40.221Z,1004.9
2017-07-20T23:57:41.735Z,1004.9
2017-07-20T23:58:43.733Z,1004.9
